sensor_id;sensor_type;location;lat;lon;timestamp;temperature;humidity
15364;DHT22;7781;49.690;6.472;2023-05-07T00:00:09;10.90;99.90
15364;DHT22;7781;49.690;6.472;2023-05-07T00:02:38;10.80;99.90
15364;DHT22;7781;49.690;6.472;2023-05-07T00:05:08;10.80;99.90
15364;DHT22;7781;49.690;6.472;2023-05-07T00:07:37;10.70;99.90
15364;DHT22;7781;49.690;6.472;2023-05-07T00:10:07;10.70;99.90
15364;DHT22;7781;49.690;6.472;2023-05-07T00:12:37;10.70;99.90
15364;DHT22;7781;49.690;6.472;2023-05-07T00:15:09;10.60;99.90
15364;DHT22;7781;49.690;6.472;2023-05-07T00:17:38;10.60;99.90
15364;DHT22;7781;49.690;6.472;2023-05-07T00:20:09;10.50;99.90
15364;DHT22;7781;49.690;6.472;2023-05-07T00:22:40;10.50;99.90
15364;DHT22;7781;49.690;6.472;2023-05-07T00:25:09;10.50;99.90
15364;DHT22;7781;49.690;6.472;2023-05-07T00:27:38;10.40;99.90
15364;DHT22;7781;49.690;6.472;2023-05-07T00:30:10;10.40;99.90
15364;DHT22;7781;49.690;6.472;2023-05-07T00:32:39;10.40;99.90
15364;DHT22;7781;49.690;6.472;2023-05-07T00:35:08;10.40;99.90
15364;DHT22;7781;49.690;6.472;2023-05-07T00:37:39;10.30;99.90
15364;DHT22;7781;49.690;6.472;2023-05-07T00:40:08;10.30;99.90
15364;DHT22;7781;49.690;6.472;2023-05-07T00:42:39;10.30;99.90
15364;DHT22;7781;49.690;6.472;2023-05-07T00:45:09;10.20;99.90
15364;DHT22;7781;49.690;6.472;2023-05-07T00:47:39;10.20;99.90
15364;DHT22;7781;49.690;6.472;2023-05-07T00:50:08;10.20;99.90
15364;DHT22;7781;49.690;6.472;2023-05-07T00:52:40;10.10;99.90
15364;DHT22;7781;49.690;6.472;2023-05-07T00:55:09;10.10;99.90
15364;DHT22;7781;49.690;6.472;2023-05-07T00:57:40;10.10;99.90
15364;DHT22;7781;49.690;6.472;2023-05-07T01:00:12;10.00;99.90
15364;DHT22;7781;49.690;6.472;2023-05-07T01:02:41;10.00;99.90
15364;DHT22;7781;49.690;6.472;2023-05-07T01:05:13;10.00;99.90
15364;DHT22;7781;49.690;6.472;2023-05-07T01:07:43;10.00;99.90
15364;DHT22;7781;49.690;6.472;2023-05-07T01:10:12;10.00;99.90
15364;DHT22;7781;49.690;6.472;2023-05-07T01:12:42;10.00;99.90
15364;DHT22;7781;49.690;6.472;2023-05-07T01:15:15;10.00;99.90
15364;DHT22;7781;49.690;6.472;2023-05-07T01:17:44;9.90;99.90
15364;DHT22;7781;49.690;6.472;2023-05-07T01:20:21;9.90;99.90
15364;DHT22;7781;49.690;6.472;2023-05-07T01:22:55;9.90;99.90
15364;DHT22;7781;49.690;6.472;2023-05-07T01:25:25;9.90;99.90
15364;DHT22;7781;49.690;6.472;2023-05-07T01:27:57;9.90;99.90
15364;DHT22;7781;49.690;6.472;2023-05-07T01:30:29;9.90;99.90
15364;DHT22;7781;49.690;6.472;2023-05-07T01:33:03;9.90;99.90
15364;DHT22;7781;49.690;6.472;2023-05-07T01:35:37;9.90;99.90
15364;DHT22;7781;49.690;6.472;2023-05-07T01:38:08;9.80;99.90
15364;DHT22;7781;49.690;6.472;2023-05-07T01:40:37;9.80;99.90
15364;DHT22;7781;49.690;6.472;2023-05-07T01:43:06;9.70;99.90
15364;DHT22;7781;49.690;6.472;2023-05-07T01:45:36;9.70;99.90
15364;DHT22;7781;49.690;6.472;2023-05-07T01:48:05;9.70;99.90
15364;DHT22;7781;49.690;6.472;2023-05-07T01:50:35;9.70;99.90
15364;DHT22;7781;49.690;6.472;2023-05-07T01:53:04;9.70;99.90
15364;DHT22;7781;49.690;6.472;2023-05-07T01:55:34;9.60;99.90
15364;DHT22;7781;49.690;6.472;2023-05-07T01:58:04;9.60;99.90
15364;DHT22;7781;49.690;6.472;2023-05-07T02:00:32;9.60;99.90
15364;DHT22;7781;49.690;6.472;2023-05-07T02:03:01;9.60;99.90
15364;DHT22;7781;49.690;6.472;2023-05-07T02:05:43;9.60;99.90
15364;DHT22;7781;49.690;6.472;2023-05-07T02:08:19;9.50;99.90
15364;DHT22;7781;49.690;6.472;2023-05-07T02:10:51;9.50;99.90
15364;DHT22;7781;49.690;6.472;2023-05-07T02:13:22;9.50;99.90
15364;DHT22;7781;49.690;6.472;2023-05-07T02:15:52;9.50;99.90
15364;DHT22;7781;49.690;6.472;2023-05-07T02:18:23;9.50;99.90
15364;DHT22;7781;49.690;6.472;2023-05-07T02:20:51;9.40;99.90
15364;DHT22;7781;49.690;6.472;2023-05-07T02:23:24;9.40;99.90
15364;DHT22;7781;49.690;6.472;2023-05-07T02:25:56;9.40;99.90
15364;DHT22;7781;49.690;6.472;2023-05-07T02:28:25;9.40;99.90
15364;DHT22;7781;49.690;6.472;2023-05-07T02:31:04;9.30;99.90
15364;DHT22;7781;49.690;6.472;2023-05-07T02:33:33;9.30;99.90
15364;DHT22;7781;49.690;6.472;2023-05-07T02:36:07;9.30;99.90
15364;DHT22;7781;49.690;6.472;2023-05-07T02:38:41;9.30;99.90
15364;DHT22;7781;49.690;6.472;2023-05-07T02:41:12;9.30;99.90
15364;DHT22;7781;49.690;6.472;2023-05-07T02:43:40;9.40;99.90
15364;DHT22;7781;49.690;6.472;2023-05-07T02:46:10;9.40;99.90
15364;DHT22;7781;49.690;6.472;2023-05-07T02:48:43;9.40;99.90
15364;DHT22;7781;49.690;6.472;2023-05-07T02:51:12;9.30;99.90
15364;DHT22;7781;49.690;6.472;2023-05-07T02:53:46;9.30;99.90
15364;DHT22;7781;49.690;6.472;2023-05-07T02:56:16;9.30;99.90
15364;DHT22;7781;49.690;6.472;2023-05-07T02:58:44;9.20;99.90
15364;DHT22;7781;49.690;6.472;2023-05-07T03:01:14;9.20;99.90
15364;DHT22;7781;49.690;6.472;2023-05-07T03:04:05;9.20;99.90
15364;DHT22;7781;49.690;6.472;2023-05-07T03:06:34;9.10;99.90
15364;DHT22;7781;49.690;6.472;2023-05-07T03:09:03;9.10;99.90
15364;DHT22;7781;49.690;6.472;2023-05-07T03:11:34;9.10;99.90
15364;DHT22;7781;49.690;6.472;2023-05-07T03:14:03;9.00;99.90
15364;DHT22;7781;49.690;6.472;2023-05-07T03:16:33;9.00;99.90
15364;DHT22;7781;49.690;6.472;2023-05-07T03:19:02;9.00;99.90
15364;DHT22;7781;49.690;6.472;2023-05-07T03:21:31;9.00;99.90
15364;DHT22;7781;49.690;6.472;2023-05-07T03:24:02;9.10;99.90
15364;DHT22;7781;49.690;6.472;2023-05-07T03:26:30;9.00;99.90
15364;DHT22;7781;49.690;6.472;2023-05-07T03:29:02;9.10;99.90
15364;DHT22;7781;49.690;6.472;2023-05-07T03:31:31;9.00;99.90
15364;DHT22;7781;49.690;6.472;2023-05-07T03:34:01;9.00;99.90
15364;DHT22;7781;49.690;6.472;2023-05-07T03:36:29;9.00;99.90
15364;DHT22;7781;49.690;6.472;2023-05-07T03:38:58;9.00;99.90
15364;DHT22;7781;49.690;6.472;2023-05-07T03:41:35;9.00;99.90
15364;DHT22;7781;49.690;6.472;2023-05-07T03:44:05;9.00;99.90
15364;DHT22;7781;49.690;6.472;2023-05-07T03:46:34;9.00;99.90
15364;DHT22;7781;49.690;6.472;2023-05-07T03:49:03;9.00;99.90
15364;DHT22;7781;49.690;6.472;2023-05-07T03:51:33;9.00;99.90
15364;DHT22;7781;49.690;6.472;2023-05-07T03:54:05;9.00;99.90
15364;DHT22;7781;49.690;6.472;2023-05-07T03:56:35;9.10;99.90
15364;DHT22;7781;49.690;6.472;2023-05-07T03:59:04;9.00;99.90
15364;DHT22;7781;49.690;6.472;2023-05-07T04:01:35;9.00;99.90
15364;DHT22;7781;49.690;6.472;2023-05-07T04:04:06;9.00;99.90
15364;DHT22;7781;49.690;6.472;2023-05-07T04:06:36;9.00;99.90
15364;DHT22;7781;49.690;6.472;2023-05-07T04:09:05;9.00;99.90
15364;DHT22;7781;49.690;6.472;2023-05-07T04:11:37;9.00;99.90
15364;DHT22;7781;49.690;6.472;2023-05-07T04:14:10;9.00;99.90
15364;DHT22;7781;49.690;6.472;2023-05-07T04:16:40;9.00;99.90
15364;DHT22;7781;49.690;6.472;2023-05-07T04:19:09;9.00;99.90
15364;DHT22;7781;49.690;6.472;2023-05-07T04:21:39;9.00;99.90
15364;DHT22;7781;49.690;6.472;2023-05-07T04:24:09;9.00;99.90
15364;DHT22;7781;49.690;6.472;2023-05-07T04:26:38;9.00;99.90
15364;DHT22;7781;49.690;6.472;2023-05-07T04:29:10;9.00;99.90
15364;DHT22;7781;49.690;6.472;2023-05-07T04:31:39;9.00;99.90
15364;DHT22;7781;49.690;6.472;2023-05-07T04:34:11;9.00;99.90
15364;DHT22;7781;49.690;6.472;2023-05-07T04:36:43;9.00;99.90
15364;DHT22;7781;49.690;6.472;2023-05-07T04:39:13;9.10;99.90
15364;DHT22;7781;49.690;6.472;2023-05-07T04:41:44;9.10;99.90
15364;DHT22;7781;49.690;6.472;2023-05-07T04:44:15;9.10;99.90
15364;DHT22;7781;49.690;6.472;2023-05-07T04:46:44;9.20;99.90
15364;DHT22;7781;49.690;6.472;2023-05-07T04:49:12;9.20;99.90
15364;DHT22;7781;49.690;6.472;2023-05-07T04:51:42;9.20;99.90
15364;DHT22;7781;49.690;6.472;2023-05-07T04:54:13;9.30;99.90
15364;DHT22;7781;49.690;6.472;2023-05-07T04:56:42;9.40;99.90
15364;DHT22;7781;49.690;6.472;2023-05-07T04:59:11;9.40;99.90
15364;DHT22;7781;49.690;6.472;2023-05-07T05:01:41;9.50;99.90
15364;DHT22;7781;49.690;6.472;2023-05-07T05:04:12;9.50;99.90
15364;DHT22;7781;49.690;6.472;2023-05-07T05:06:41;9.60;99.90
15364;DHT22;7781;49.690;6.472;2023-05-07T05:09:11;9.70;99.90
15364;DHT22;7781;49.690;6.472;2023-05-07T05:11:40;9.70;99.90
15364;DHT22;7781;49.690;6.472;2023-05-07T05:14:09;9.80;99.90
15364;DHT22;7781;49.690;6.472;2023-05-07T05:16:38;9.90;99.90
15364;DHT22;7781;49.690;6.472;2023-05-07T05:19:10;9.90;99.90
15364;DHT22;7781;49.690;6.472;2023-05-07T05:21:41;10.00;99.90
15364;DHT22;7781;49.690;6.472;2023-05-07T05:24:10;10.00;99.90
15364;DHT22;7781;49.690;6.472;2023-05-07T05:26:40;10.10;99.90
15364;DHT22;7781;49.690;6.472;2023-05-07T05:29:13;10.20;99.90
15364;DHT22;7781;49.690;6.472;2023-05-07T05:31:43;10.30;99.90
15364;DHT22;7781;49.690;6.472;2023-05-07T05:34:13;10.40;99.90
15364;DHT22;7781;49.690;6.472;2023-05-07T05:36:42;10.40;99.90
15364;DHT22;7781;49.690;6.472;2023-05-07T05:39:13;10.50;99.90
15364;DHT22;7781;49.690;6.472;2023-05-07T05:41:42;10.60;99.90
15364;DHT22;7781;49.690;6.472;2023-05-07T05:44:12;10.70;99.90
15364;DHT22;7781;49.690;6.472;2023-05-07T05:46:42;10.80;99.90
15364;DHT22;7781;49.690;6.472;2023-05-07T05:49:12;10.90;99.90
15364;DHT22;7781;49.690;6.472;2023-05-07T05:51:42;11.00;99.90
15364;DHT22;7781;49.690;6.472;2023-05-07T05:54:11;11.10;99.90
15364;DHT22;7781;49.690;6.472;2023-05-07T05:56:41;11.20;99.90
15364;DHT22;7781;49.690;6.472;2023-05-07T05:59:10;11.20;99.90
15364;DHT22;7781;49.690;6.472;2023-05-07T06:01:39;11.30;99.90
15364;DHT22;7781;49.690;6.472;2023-05-07T06:04:07;11.40;99.90
15364;DHT22;7781;49.690;6.472;2023-05-07T06:06:38;11.40;99.90
15364;DHT22;7781;49.690;6.472;2023-05-07T06:09:07;11.50;99.90
15364;DHT22;7781;49.690;6.472;2023-05-07T06:11:43;11.60;99.90
15364;DHT22;7781;49.690;6.472;2023-05-07T06:14:13;11.80;99.90
15364;DHT22;7781;49.690;6.472;2023-05-07T06:16:43;11.90;99.90
15364;DHT22;7781;49.690;6.472;2023-05-07T06:19:11;12.00;99.90
15364;DHT22;7781;49.690;6.472;2023-05-07T06:21:43;12.00;99.90
15364;DHT22;7781;49.690;6.472;2023-05-07T06:24:12;12.10;99.90
15364;DHT22;7781;49.690;6.472;2023-05-07T06:26:42;12.20;99.90
15364;DHT22;7781;49.690;6.472;2023-05-07T06:29:12;12.30;99.90
15364;DHT22;7781;49.690;6.472;2023-05-07T06:31:42;12.40;99.90
15364;DHT22;7781;49.690;6.472;2023-05-07T06:34:11;12.40;99.90
15364;DHT22;7781;49.690;6.472;2023-05-07T06:36:43;12.40;99.90
15364;DHT22;7781;49.690;6.472;2023-05-07T06:39:22;12.50;99.90
15364;DHT22;7781;49.690;6.472;2023-05-07T06:41:52;12.60;99.90
15364;DHT22;7781;49.690;6.472;2023-05-07T06:44:26;12.70;99.90
15364;DHT22;7781;49.690;6.472;2023-05-07T06:47:10;12.80;99.90
15364;DHT22;7781;49.690;6.472;2023-05-07T06:49:47;13.00;99.90
15364;DHT22;7781;49.690;6.472;2023-05-07T06:52:21;13.10;99.90
15364;DHT22;7781;49.690;6.472;2023-05-07T06:54:50;13.20;99.90
15364;DHT22;7781;49.690;6.472;2023-05-07T06:57:21;13.30;99.90
15364;DHT22;7781;49.690;6.472;2023-05-07T06:59:50;13.50;99.90
15364;DHT22;7781;49.690;6.472;2023-05-07T07:02:21;13.60;99.90
15364;DHT22;7781;49.690;6.472;2023-05-07T07:04:50;13.60;99.90
15364;DHT22;7781;49.690;6.472;2023-05-07T07:07:22;13.70;99.90
15364;DHT22;7781;49.690;6.472;2023-05-07T07:09:51;13.80;99.90
15364;DHT22;7781;49.690;6.472;2023-05-07T07:12:20;13.90;99.90
15364;DHT22;7781;49.690;6.472;2023-05-07T07:14:49;14.00;99.90
15364;DHT22;7781;49.690;6.472;2023-05-07T07:17:21;14.10;99.90
15364;DHT22;7781;49.690;6.472;2023-05-07T07:19:50;14.20;99.90
15364;DHT22;7781;49.690;6.472;2023-05-07T07:22:21;14.30;99.90
15364;DHT22;7781;49.690;6.472;2023-05-07T07:24:53;14.30;99.90
15364;DHT22;7781;49.690;6.472;2023-05-07T07:27:23;14.40;99.90
15364;DHT22;7781;49.690;6.472;2023-05-07T07:29:51;14.50;99.90
15364;DHT22;7781;49.690;6.472;2023-05-07T07:32:20;14.60;99.90
15364;DHT22;7781;49.690;6.472;2023-05-07T07:34:51;14.70;99.90
15364;DHT22;7781;49.690;6.472;2023-05-07T07:37:23;14.90;99.90
15364;DHT22;7781;49.690;6.472;2023-05-07T07:39:53;15.00;99.90
15364;DHT22;7781;49.690;6.472;2023-05-07T07:42:22;15.20;99.90
15364;DHT22;7781;49.690;6.472;2023-05-07T07:44:50;15.30;99.90
15364;DHT22;7781;49.690;6.472;2023-05-07T07:47:23;15.40;99.90
15364;DHT22;7781;49.690;6.472;2023-05-07T07:49:54;15.60;99.90
15364;DHT22;7781;49.690;6.472;2023-05-07T07:52:27;15.70;99.90
15364;DHT22;7781;49.690;6.472;2023-05-07T07:54:57;15.80;99.90
15364;DHT22;7781;49.690;6.472;2023-05-07T07:57:27;15.90;99.90
15364;DHT22;7781;49.690;6.472;2023-05-07T07:59:57;16.00;99.90
15364;DHT22;7781;49.690;6.472;2023-05-07T08:02:26;16.10;99.90
15364;DHT22;7781;49.690;6.472;2023-05-07T08:04:55;16.20;99.90
15364;DHT22;7781;49.690;6.472;2023-05-07T08:07:23;16.20;99.90
15364;DHT22;7781;49.690;6.472;2023-05-07T08:09:56;16.40;99.90
15364;DHT22;7781;49.690;6.472;2023-05-07T08:12:26;16.40;99.90
15364;DHT22;7781;49.690;6.472;2023-05-07T08:14:54;16.40;99.90
15364;DHT22;7781;49.690;6.472;2023-05-07T08:17:23;16.50;99.90
15364;DHT22;7781;49.690;6.472;2023-05-07T08:19:52;16.50;99.90
15364;DHT22;7781;49.690;6.472;2023-05-07T08:22:21;16.60;99.90
15364;DHT22;7781;49.690;6.472;2023-05-07T08:24:50;16.70;99.90
15364;DHT22;7781;49.690;6.472;2023-05-07T08:27:24;16.80;99.90
15364;DHT22;7781;49.690;6.472;2023-05-07T08:29:53;16.90;99.90
15364;DHT22;7781;49.690;6.472;2023-05-07T08:32:22;16.90;99.90
15364;DHT22;7781;49.690;6.472;2023-05-07T08:34:51;17.00;99.90
15364;DHT22;7781;49.690;6.472;2023-05-07T08:37:21;17.10;99.90
15364;DHT22;7781;49.690;6.472;2023-05-07T08:39:54;17.10;99.90
15364;DHT22;7781;49.690;6.472;2023-05-07T08:42:29;17.20;99.90
15364;DHT22;7781;49.690;6.472;2023-05-07T08:45:00;17.40;99.90
15364;DHT22;7781;49.690;6.472;2023-05-07T08:47:40;17.40;99.90
15364;DHT22;7781;49.690;6.472;2023-05-07T08:50:13;17.40;99.90
15364;DHT22;7781;49.690;6.472;2023-05-07T08:52:43;17.40;99.90
15364;DHT22;7781;49.690;6.472;2023-05-07T08:55:13;17.50;99.90
15364;DHT22;7781;49.690;6.472;2023-05-07T08:57:46;17.60;99.90
15364;DHT22;7781;49.690;6.472;2023-05-07T09:00:17;17.60;99.90
15364;DHT22;7781;49.690;6.472;2023-05-07T09:02:49;17.70;99.90
15364;DHT22;7781;49.690;6.472;2023-05-07T09:05:19;17.90;99.90
15364;DHT22;7781;49.690;6.472;2023-05-07T09:07:49;18.00;99.90
15364;DHT22;7781;49.690;6.472;2023-05-07T09:10:21;18.00;99.90
15364;DHT22;7781;49.690;6.472;2023-05-07T09:12:57;18.10;99.90
15364;DHT22;7781;49.690;6.472;2023-05-07T09:15:29;18.10;99.90
15364;DHT22;7781;49.690;6.472;2023-05-07T09:18:00;18.30;99.90
15364;DHT22;7781;49.690;6.472;2023-05-07T09:20:33;18.40;99.90
15364;DHT22;7781;49.690;6.472;2023-05-07T09:23:05;18.40;99.90
15364;DHT22;7781;49.690;6.472;2023-05-07T09:25:36;18.50;99.90
15364;DHT22;7781;49.690;6.472;2023-05-07T09:28:14;18.60;99.90
15364;DHT22;7781;49.690;6.472;2023-05-07T09:30:44;18.70;99.90
15364;DHT22;7781;49.690;6.472;2023-05-07T09:33:14;18.80;99.90
15364;DHT22;7781;49.690;6.472;2023-05-07T09:35:51;18.90;99.90
15364;DHT22;7781;49.690;6.472;2023-05-07T09:38:22;19.00;99.90
15364;DHT22;7781;49.690;6.472;2023-05-07T09:41:03;19.20;99.90
15364;DHT22;7781;49.690;6.472;2023-05-07T09:43:38;19.40;99.90
15364;DHT22;7781;49.690;6.472;2023-05-07T09:46:12;19.50;99.90
15364;DHT22;7781;49.690;6.472;2023-05-07T09:48:48;19.60;99.90
15364;DHT22;7781;49.690;6.472;2023-05-07T09:51:24;19.60;93.00
15364;DHT22;7781;49.690;6.472;2023-05-07T09:53:56;19.70;96.60
15364;DHT22;7781;49.690;6.472;2023-05-07T09:56:29;19.80;71.40
15364;DHT22;7781;49.690;6.472;2023-05-07T09:59:00;19.90;76.30
15364;DHT22;7781;49.690;6.472;2023-05-07T10:01:33;20.00;72.10
15364;DHT22;7781;49.690;6.472;2023-05-07T10:04:05;19.90;60.80
15364;DHT22;7781;49.690;6.472;2023-05-07T10:06:36;20.10;56.70
15364;DHT22;7781;49.690;6.472;2023-05-07T10:09:06;20.20;47.70
15364;DHT22;7781;49.690;6.472;2023-05-07T10:11:35;20.20;52.40
15364;DHT22;7781;49.690;6.472;2023-05-07T10:14:06;20.30;57.30
15364;DHT22;7781;49.690;6.472;2023-05-07T10:16:37;20.30;57.40
15364;DHT22;7781;49.690;6.472;2023-05-07T10:19:10;20.50;54.20
15364;DHT22;7781;49.690;6.472;2023-05-07T10:21:44;20.70;56.60
15364;DHT22;7781;49.690;6.472;2023-05-07T10:24:20;20.70;53.20
15364;DHT22;7781;49.690;6.472;2023-05-07T10:26:52;20.90;55.70
15364;DHT22;7781;49.690;6.472;2023-05-07T10:29:30;21.00;45.60
15364;DHT22;7781;49.690;6.472;2023-05-07T10:32:14;20.90;43.00
15364;DHT22;7781;49.690;6.472;2023-05-07T10:34:50;20.60;40.10
15364;DHT22;7781;49.690;6.472;2023-05-07T10:37:22;20.40;30.20
15364;DHT22;7781;49.690;6.472;2023-05-07T10:39:55;20.30;35.00
15364;DHT22;7781;49.690;6.472;2023-05-07T10:42:26;20.40;34.40
15364;DHT22;7781;49.690;6.472;2023-05-07T10:44:58;20.40;28.50
15364;DHT22;7781;49.690;6.472;2023-05-07T10:48:05;20.50;34.30
15364;DHT22;7781;49.690;6.472;2023-05-07T10:51:18;20.50;43.60
15364;DHT22;7781;49.690;6.472;2023-05-07T10:53:48;20.50;39.80
15364;DHT22;7781;49.690;6.472;2023-05-07T10:56:25;20.60;38.80
15364;DHT22;7781;49.690;6.472;2023-05-07T10:59:30;20.70;38.70
15364;DHT22;7781;49.690;6.472;2023-05-07T11:02:16;20.70;34.00
15364;DHT22;7781;49.690;6.472;2023-05-07T11:05:20;20.70;28.10
15364;DHT22;7781;49.690;6.472;2023-05-07T11:08:10;20.70;29.10
15364;DHT22;7781;49.690;6.472;2023-05-07T11:10:55;20.90;37.40
15364;DHT22;7781;49.690;6.472;2023-05-07T11:13:51;20.90;30.90
15364;DHT22;7781;49.690;6.472;2023-05-07T11:16:52;21.10;30.00
15364;DHT22;7781;49.690;6.472;2023-05-07T11:19:50;21.20;32.90
15364;DHT22;7781;49.690;6.472;2023-05-07T11:22:36;21.40;45.80
15364;DHT22;7781;49.690;6.472;2023-05-07T11:25:17;21.50;53.70
15364;DHT22;7781;49.690;6.472;2023-05-07T11:27:52;21.50;40.00
15364;DHT22;7781;49.690;6.472;2023-05-07T11:30:22;21.60;42.00
15364;DHT22;7781;49.690;6.472;2023-05-07T11:32:56;21.30;43.00
15364;DHT22;7781;49.690;6.472;2023-05-07T11:35:34;21.30;18.70
15364;DHT22;7781;49.690;6.472;2023-05-07T11:38:09;21.40;28.80
15364;DHT22;7781;49.690;6.472;2023-05-07T11:40:48;21.60;30.90
15364;DHT22;7781;49.690;6.472;2023-05-07T11:43:21;21.70;32.30
15364;DHT22;7781;49.690;6.472;2023-05-07T11:45:50;21.40;37.20
15364;DHT22;7781;49.690;6.472;2023-05-07T11:48:21;21.30;34.40
15364;DHT22;7781;49.690;6.472;2023-05-07T11:50:59;21.40;31.10
15364;DHT22;7781;49.690;6.472;2023-05-07T11:53:36;21.50;32.30
15364;DHT22;7781;49.690;6.472;2023-05-07T11:56:07;21.60;36.00
15364;DHT22;7781;49.690;6.472;2023-05-07T11:58:36;21.70;31.80
15364;DHT22;7781;49.690;6.472;2023-05-07T12:01:08;21.90;31.20
15364;DHT22;7781;49.690;6.472;2023-05-07T12:03:39;21.90;33.10
15364;DHT22;7781;49.690;6.472;2023-05-07T12:06:12;22.10;44.90
15364;DHT22;7781;49.690;6.472;2023-05-07T12:08:42;22.30;41.30
15364;DHT22;7781;49.690;6.472;2023-05-07T12:11:22;22.10;34.00
15364;DHT22;7781;49.690;6.472;2023-05-07T12:13:54;22.30;40.20
15364;DHT22;7781;49.690;6.472;2023-05-07T12:16:26;22.30;41.20
15364;DHT22;7781;49.690;6.472;2023-05-07T12:18:59;22.10;39.70
15364;DHT22;7781;49.690;6.472;2023-05-07T12:21:29;22.10;44.80
15364;DHT22;7781;49.690;6.472;2023-05-07T12:23:58;22.10;35.30
15364;DHT22;7781;49.690;6.472;2023-05-07T12:26:27;22.20;31.90
15364;DHT22;7781;49.690;6.472;2023-05-07T12:28:57;22.20;42.40
15364;DHT22;7781;49.690;6.472;2023-05-07T12:31:25;22.10;34.30
15364;DHT22;7781;49.690;6.472;2023-05-07T12:33:54;22.10;34.10
15364;DHT22;7781;49.690;6.472;2023-05-07T12:36:23;22.10;36.80
15364;DHT22;7781;49.690;6.472;2023-05-07T12:38:54;21.90;31.10
15364;DHT22;7781;49.690;6.472;2023-05-07T12:41:23;22.00;36.20
15364;DHT22;7781;49.690;6.472;2023-05-07T12:43:56;21.90;33.10
15364;DHT22;7781;49.690;6.472;2023-05-07T12:46:26;22.00;27.00
15364;DHT22;7781;49.690;6.472;2023-05-07T12:48:55;21.90;52.00
15364;DHT22;7781;49.690;6.472;2023-05-07T12:51:24;21.70;49.60
15364;DHT22;7781;49.690;6.472;2023-05-07T12:53:59;21.50;47.80
15364;DHT22;7781;49.690;6.472;2023-05-07T12:56:30;21.30;54.60
15364;DHT22;7781;49.690;6.472;2023-05-07T12:58:59;21.20;58.90
15364;DHT22;7781;49.690;6.472;2023-05-07T13:01:29;21.40;62.60
15364;DHT22;7781;49.690;6.472;2023-05-07T13:04:00;21.30;80.20
15364;DHT22;7781;49.690;6.472;2023-05-07T13:06:30;21.30;87.30
15364;DHT22;7781;49.690;6.472;2023-05-07T13:09:01;21.50;76.10
15364;DHT22;7781;49.690;6.472;2023-05-07T13:11:31;21.50;75.50
15364;DHT22;7781;49.690;6.472;2023-05-07T13:13:59;21.50;70.90
15364;DHT22;7781;49.690;6.472;2023-05-07T13:16:28;21.50;69.20
15364;DHT22;7781;49.690;6.472;2023-05-07T13:18:57;21.50;69.40
15364;DHT22;7781;49.690;6.472;2023-05-07T13:21:25;21.50;61.80
15364;DHT22;7781;49.690;6.472;2023-05-07T13:23:54;21.60;61.70
15364;DHT22;7781;49.690;6.472;2023-05-07T13:26:25;21.60;58.70
15364;DHT22;7781;49.690;6.472;2023-05-07T13:28:55;21.50;66.20
15364;DHT22;7781;49.690;6.472;2023-05-07T13:31:25;21.50;60.00
15364;DHT22;7781;49.690;6.472;2023-05-07T13:33:53;21.40;62.10
15364;DHT22;7781;49.690;6.472;2023-05-07T13:36:23;21.40;58.30
15364;DHT22;7781;49.690;6.472;2023-05-07T13:38:53;21.30;64.60
15364;DHT22;7781;49.690;6.472;2023-05-07T13:41:27;21.40;55.00
15364;DHT22;7781;49.690;6.472;2023-05-07T13:43:56;21.30;87.70
15364;DHT22;7781;49.690;6.472;2023-05-07T13:46:25;21.30;91.60
15364;DHT22;7781;49.690;6.472;2023-05-07T13:48:55;21.40;84.50
15364;DHT22;7781;49.690;6.472;2023-05-07T13:51:24;21.30;94.70
15364;DHT22;7781;49.690;6.472;2023-05-07T13:53:53;21.30;73.80
15364;DHT22;7781;49.690;6.472;2023-05-07T13:56:22;21.30;58.30
15364;DHT22;7781;49.690;6.472;2023-05-07T13:58:52;21.30;56.40
15364;DHT22;7781;49.690;6.472;2023-05-07T14:01:27;21.20;84.70
15364;DHT22;7781;49.690;6.472;2023-05-07T14:03:56;21.20;74.90
15364;DHT22;7781;49.690;6.472;2023-05-07T14:06:26;21.20;73.10
15364;DHT22;7781;49.690;6.472;2023-05-07T14:08:55;21.30;76.50
15364;DHT22;7781;49.690;6.472;2023-05-07T14:11:27;21.20;69.30
15364;DHT22;7781;49.690;6.472;2023-05-07T14:13:58;21.10;70.60
15364;DHT22;7781;49.690;6.472;2023-05-07T14:16:26;21.20;66.90
15364;DHT22;7781;49.690;6.472;2023-05-07T14:18:55;21.20;61.30
15364;DHT22;7781;49.690;6.472;2023-05-07T14:21:25;21.20;72.10
15364;DHT22;7781;49.690;6.472;2023-05-07T14:23:55;21.30;75.20
15364;DHT22;7781;49.690;6.472;2023-05-07T14:26:28;21.50;77.10
15364;DHT22;7781;49.690;6.472;2023-05-07T14:29:00;21.50;70.70
15364;DHT22;7781;49.690;6.472;2023-05-07T14:31:29;21.60;68.60
15364;DHT22;7781;49.690;6.472;2023-05-07T14:34:01;21.60;63.50
15364;DHT22;7781;49.690;6.472;2023-05-07T14:36:30;21.60;59.80
15364;DHT22;7781;49.690;6.472;2023-05-07T14:38:59;21.50;85.40
15364;DHT22;7781;49.690;6.472;2023-05-07T14:41:31;21.50;90.90
15364;DHT22;7781;49.690;6.472;2023-05-07T14:44:01;21.70;90.80
15364;DHT22;7781;49.690;6.472;2023-05-07T14:46:32;21.80;84.00
15364;DHT22;7781;49.690;6.472;2023-05-07T14:49:02;21.90;74.90
15364;DHT22;7781;49.690;6.472;2023-05-07T14:51:32;22.10;59.30
15364;DHT22;7781;49.690;6.472;2023-05-07T14:54:03;22.30;51.80
15364;DHT22;7781;49.690;6.472;2023-05-07T14:56:32;22.60;63.80
15364;DHT22;7781;49.690;6.472;2023-05-07T14:59:03;22.90;43.50
15364;DHT22;7781;49.690;6.472;2023-05-07T15:01:32;23.00;50.80
15364;DHT22;7781;49.690;6.472;2023-05-07T15:04:03;23.00;36.00
15364;DHT22;7781;49.690;6.472;2023-05-07T15:06:32;23.40;43.60
15364;DHT22;7781;49.690;6.472;2023-05-07T15:09:01;23.50;72.80
15364;DHT22;7781;49.690;6.472;2023-05-07T15:11:30;23.80;99.90
15364;DHT22;7781;49.690;6.472;2023-05-07T15:13:58;24.10;99.90
15364;DHT22;7781;49.690;6.472;2023-05-07T15:16:32;23.90;99.90
15364;DHT22;7781;49.690;6.472;2023-05-07T15:19:01;24.00;99.90
15364;DHT22;7781;49.690;6.472;2023-05-07T15:21:30;24.30;99.90
15364;DHT22;7781;49.690;6.472;2023-05-07T15:24:01;24.40;99.90
15364;DHT22;7781;49.690;6.472;2023-05-07T15:26:30;24.10;99.90
15364;DHT22;7781;49.690;6.472;2023-05-07T15:29:01;24.10;99.90
15364;DHT22;7781;49.690;6.472;2023-05-07T15:31:37;23.90;99.90
15364;DHT22;7781;49.690;6.472;2023-05-07T15:34:06;23.50;99.90
15364;DHT22;7781;49.690;6.472;2023-05-07T15:36:36;23.30;99.60
15364;DHT22;7781;49.690;6.472;2023-05-07T15:39:06;22.90;99.90
15364;DHT22;7781;49.690;6.472;2023-05-07T15:41:36;22.20;91.00
15364;DHT22;7781;49.690;6.472;2023-05-07T15:44:05;21.70;91.30
15364;DHT22;7781;49.690;6.472;2023-05-07T15:46:34;21.40;99.40
15364;DHT22;7781;49.690;6.472;2023-05-07T15:49:04;21.20;97.10
15364;DHT22;7781;49.690;6.472;2023-05-07T15:51:35;20.70;98.60
15364;DHT22;7781;49.690;6.472;2023-05-07T15:54:04;20.50;99.90
15364;DHT22;7781;49.690;6.472;2023-05-07T15:56:32;20.50;99.90
15364;DHT22;7781;49.690;6.472;2023-05-07T15:59:01;20.40;99.90
15364;DHT22;7781;49.690;6.472;2023-05-07T16:01:30;20.30;99.90
15364;DHT22;7781;49.690;6.472;2023-05-07T16:04:01;20.40;99.90
15364;DHT22;7781;49.690;6.472;2023-05-07T16:06:32;20.30;99.90
15364;DHT22;7781;49.690;6.472;2023-05-07T16:09:01;20.20;99.90
15364;DHT22;7781;49.690;6.472;2023-05-07T16:11:33;20.10;99.90
15364;DHT22;7781;49.690;6.472;2023-05-07T16:14:02;20.00;99.90
15364;DHT22;7781;49.690;6.472;2023-05-07T16:16:32;19.90;99.90